sensor_id;sensor_type;location;lat;lon;timestamp;temperature;humidity
57282;DHT22;43129;52.628;10.098;2023-09-12T00:01:09;22.60;99.90
57282;DHT22;43129;52.628;10.098;2023-09-12T00:03:37;22.60;99.90
57282;DHT22;43129;52.628;10.098;2023-09-12T00:06:05;22.60;99.90
57282;DHT22;43129;52.628;10.098;2023-09-12T00:08:30;22.70;99.90
57282;DHT22;43129;52.628;10.098;2023-09-12T00:11:09;22.70;99.90
57282;DHT22;43129;52.628;10.098;2023-09-12T00:13:39;22.70;99.90
57282;DHT22;43129;52.628;10.098;2023-09-12T00:16:08;22.60;99.90
57282;DHT22;43129;52.628;10.098;2023-09-12T00:18:40;22.60;99.90
57282;DHT22;43129;52.628;10.098;2023-09-12T00:21:05;22.70;99.90
57282;DHT22;43129;52.628;10.098;2023-09-12T00:23:31;22.60;99.90
57282;DHT22;43129;52.628;10.098;2023-09-12T00:25:57;22.50;99.90
57282;DHT22;43129;52.628;10.098;2023-09-12T00:28:25;22.30;99.90
57282;DHT22;43129;52.628;10.098;2023-09-12T00:30:51;22.30;99.90
57282;DHT22;43129;52.628;10.098;2023-09-12T00:33:17;22.20;99.90
57282;DHT22;43129;52.628;10.098;2023-09-12T00:35:44;22.00;99.90
57282;DHT22;43129;52.628;10.098;2023-09-12T00:38:09;21.90;99.90
57282;DHT22;43129;52.628;10.098;2023-09-12T00:40:35;22.00;99.90
57282;DHT22;43129;52.628;10.098;2023-09-12T00:43:04;22.10;99.90
57282;DHT22;43129;52.628;10.098;2023-09-12T00:45:30;22.10;99.90
57282;DHT22;43129;52.628;10.098;2023-09-12T00:47:57;21.90;99.90
57282;DHT22;43129;52.628;10.098;2023-09-12T00:50:24;21.90;99.90
57282;DHT22;43129;52.628;10.098;2023-09-12T00:52:50;21.90;99.90
57282;DHT22;43129;52.628;10.098;2023-09-12T00:55:19;22.00;99.90
57282;DHT22;43129;52.628;10.098;2023-09-12T00:57:45;22.00;99.90
57282;DHT22;43129;52.628;10.098;2023-09-12T01:00:13;21.90;99.90
57282;DHT22;43129;52.628;10.098;2023-09-12T01:02:40;21.90;99.90
57282;DHT22;43129;52.628;10.098;2023-09-12T01:05:07;21.90;99.90
57282;DHT22;43129;52.628;10.098;2023-09-12T01:07:36;21.80;99.90
57282;DHT22;43129;52.628;10.098;2023-09-12T01:10:02;21.70;99.90
57282;DHT22;43129;52.628;10.098;2023-09-12T01:12:31;21.80;99.90
57282;DHT22;43129;52.628;10.098;2023-09-12T01:14:56;21.80;99.90
57282;DHT22;43129;52.628;10.098;2023-09-12T01:17:24;21.80;99.90
57282;DHT22;43129;52.628;10.098;2023-09-12T01:19:51;21.60;99.90
57282;DHT22;43129;52.628;10.098;2023-09-12T01:25:34;21.60;99.90
57282;DHT22;43129;52.628;10.098;2023-09-12T01:28:11;21.60;99.90
57282;DHT22;43129;52.628;10.098;2023-09-12T01:30:42;21.50;99.90
57282;DHT22;43129;52.628;10.098;2023-09-12T01:33:10;21.50;99.90
57282;DHT22;43129;52.628;10.098;2023-09-12T01:35:36;21.40;99.90
57282;DHT22;43129;52.628;10.098;2023-09-12T01:38:02;21.50;99.90
57282;DHT22;43129;52.628;10.098;2023-09-12T01:40:40;21.40;99.90
57282;DHT22;43129;52.628;10.098;2023-09-12T01:43:06;21.30;99.90
57282;DHT22;43129;52.628;10.098;2023-09-12T01:45:33;21.30;99.90
57282;DHT22;43129;52.628;10.098;2023-09-12T01:48:03;21.30;99.90
57282;DHT22;43129;52.628;10.098;2023-09-12T01:50:33;21.20;99.90
57282;DHT22;43129;52.628;10.098;2023-09-12T01:53:01;21.20;99.90
57282;DHT22;43129;52.628;10.098;2023-09-12T01:55:30;21.10;99.90
57282;DHT22;43129;52.628;10.098;2023-09-12T01:57:57;21.00;99.90
57282;DHT22;43129;52.628;10.098;2023-09-12T02:00:23;21.00;99.90
57282;DHT22;43129;52.628;10.098;2023-09-12T02:02:49;21.10;99.90
57282;DHT22;43129;52.628;10.098;2023-09-12T02:05:17;21.20;99.90
57282;DHT22;43129;52.628;10.098;2023-09-12T02:07:46;21.30;99.90
57282;DHT22;43129;52.628;10.098;2023-09-12T02:10:12;21.20;99.90
57282;DHT22;43129;52.628;10.098;2023-09-12T02:12:39;21.20;99.90
57282;DHT22;43129;52.628;10.098;2023-09-12T02:15:05;21.20;99.90
57282;DHT22;43129;52.628;10.098;2023-09-12T02:17:31;21.10;99.90
57282;DHT22;43129;52.628;10.098;2023-09-12T02:19:59;21.10;99.90
57282;DHT22;43129;52.628;10.098;2023-09-12T02:22:24;21.20;99.90
57282;DHT22;43129;52.628;10.098;2023-09-12T02:24:52;21.20;99.90
57282;DHT22;43129;52.628;10.098;2023-09-12T02:27:20;21.00;99.90
57282;DHT22;43129;52.628;10.098;2023-09-12T02:29:46;21.00;99.90
57282;DHT22;43129;52.628;10.098;2023-09-12T02:32:14;21.00;99.90
57282;DHT22;43129;52.628;10.098;2023-09-12T02:34:40;20.80;99.90
57282;DHT22;43129;52.628;10.098;2023-09-12T02:37:08;20.80;99.90
57282;DHT22;43129;52.628;10.098;2023-09-12T02:39:36;20.90;99.90
57282;DHT22;43129;52.628;10.098;2023-09-12T02:42:01;20.80;99.90
57282;DHT22;43129;52.628;10.098;2023-09-12T02:44:28;20.90;99.90
57282;DHT22;43129;52.628;10.098;2023-09-12T02:46:56;20.80;99.90
57282;DHT22;43129;52.628;10.098;2023-09-12T02:49:21;20.80;99.90
57282;DHT22;43129;52.628;10.098;2023-09-12T02:51:49;20.80;99.90
57282;DHT22;43129;52.628;10.098;2023-09-12T02:54:15;20.80;99.90
57282;DHT22;43129;52.628;10.098;2023-09-12T02:56:40;20.70;99.90
57282;DHT22;43129;52.628;10.098;2023-09-12T02:59:06;20.70;99.90
57282;DHT22;43129;52.628;10.098;2023-09-12T03:01:34;20.50;99.90
57282;DHT22;43129;52.628;10.098;2023-09-12T03:04:00;20.40;99.90
57282;DHT22;43129;52.628;10.098;2023-09-12T03:06:30;20.50;99.90
57282;DHT22;43129;52.628;10.098;2023-09-12T03:08:59;20.50;99.90
57282;DHT22;43129;52.628;10.098;2023-09-12T03:11:26;20.50;99.90
57282;DHT22;43129;52.628;10.098;2023-09-12T03:13:53;20.40;99.90
57282;DHT22;43129;52.628;10.098;2023-09-12T03:16:20;20.40;99.90
57282;DHT22;43129;52.628;10.098;2023-09-12T03:18:46;20.30;99.90
57282;DHT22;43129;52.628;10.098;2023-09-12T03:21:12;20.40;99.90
57282;DHT22;43129;52.628;10.098;2023-09-12T03:23:40;20.40;99.90
57282;DHT22;43129;52.628;10.098;2023-09-12T03:26:08;20.40;99.90
57282;DHT22;43129;52.628;10.098;2023-09-12T03:28:36;20.40;99.90
57282;DHT22;43129;52.628;10.098;2023-09-12T03:31:14;20.50;99.90
57282;DHT22;43129;52.628;10.098;2023-09-12T03:33:42;20.50;99.90
57282;DHT22;43129;52.628;10.098;2023-09-12T03:36:13;20.40;99.90
57282;DHT22;43129;52.628;10.098;2023-09-12T03:38:41;20.40;99.90
57282;DHT22;43129;52.628;10.098;2023-09-12T03:41:07;20.50;99.90
57282;DHT22;43129;52.628;10.098;2023-09-12T03:43:33;20.40;99.90
57282;DHT22;43129;52.628;10.098;2023-09-12T03:46:01;20.40;99.90
57282;DHT22;43129;52.628;10.098;2023-09-12T03:48:32;20.30;99.90
57282;DHT22;43129;52.628;10.098;2023-09-12T03:50:58;20.40;99.90
57282;DHT22;43129;52.628;10.098;2023-09-12T03:53:26;20.30;99.90
57282;DHT22;43129;52.628;10.098;2023-09-12T03:55:53;20.30;99.90
57282;DHT22;43129;52.628;10.098;2023-09-12T03:58:23;20.30;99.90
57282;DHT22;43129;52.628;10.098;2023-09-12T04:00:49;20.10;99.90
57282;DHT22;43129;52.628;10.098;2023-09-12T04:03:17;20.00;99.90
57282;DHT22;43129;52.628;10.098;2023-09-12T04:05:46;19.90;99.90
57282;DHT22;43129;52.628;10.098;2023-09-12T04:08:13;19.90;99.90
57282;DHT22;43129;52.628;10.098;2023-09-12T04:10:38;19.90;99.90
57282;DHT22;43129;52.628;10.098;2023-09-12T04:13:04;19.90;99.90
57282;DHT22;43129;52.628;10.098;2023-09-12T04:15:29;19.90;99.90
57282;DHT22;43129;52.628;10.098;2023-09-12T04:17:55;20.00;99.90
57282;DHT22;43129;52.628;10.098;2023-09-12T04:20:21;19.90;99.90
57282;DHT22;43129;52.628;10.098;2023-09-12T04:22:48;19.90;99.90
57282;DHT22;43129;52.628;10.098;2023-09-12T04:25:14;19.90;99.90
57282;DHT22;43129;52.628;10.098;2023-09-12T04:27:41;20.10;99.90
57282;DHT22;43129;52.628;10.098;2023-09-12T04:30:07;20.20;99.90
57282;DHT22;43129;52.628;10.098;2023-09-12T04:32:36;20.30;99.90
57282;DHT22;43129;52.628;10.098;2023-09-12T04:35:04;20.20;99.90
57282;DHT22;43129;52.628;10.098;2023-09-12T04:37:29;20.20;99.90
57282;DHT22;43129;52.628;10.098;2023-09-12T04:39:55;20.20;99.90
57282;DHT22;43129;52.628;10.098;2023-09-12T04:42:23;20.20;99.90
57282;DHT22;43129;52.628;10.098;2023-09-12T04:44:51;19.90;99.90
57282;DHT22;43129;52.628;10.098;2023-09-12T04:47:17;19.80;99.90
57282;DHT22;43129;52.628;10.098;2023-09-12T04:49:46;19.80;99.90
57282;DHT22;43129;52.628;10.098;2023-09-12T04:52:12;19.60;99.90
57282;DHT22;43129;52.628;10.098;2023-09-12T04:54:37;19.60;99.90
57282;DHT22;43129;52.628;10.098;2023-09-12T04:57:06;19.60;99.90
57282;DHT22;43129;52.628;10.098;2023-09-12T04:59:36;19.40;99.90
57282;DHT22;43129;52.628;10.098;2023-09-12T05:02:02;19.40;99.90
57282;DHT22;43129;52.628;10.098;2023-09-12T05:04:28;19.30;99.90
57282;DHT22;43129;52.628;10.098;2023-09-12T05:06:54;19.20;99.90
57282;DHT22;43129;52.628;10.098;2023-09-12T05:09:19;19.20;99.90
57282;DHT22;43129;52.628;10.098;2023-09-12T05:11:45;19.10;99.90
57282;DHT22;43129;52.628;10.098;2023-09-12T05:14:11;19.00;99.90
57282;DHT22;43129;52.628;10.098;2023-09-12T05:16:37;19.00;99.90
57282;DHT22;43129;52.628;10.098;2023-09-12T05:19:05;19.00;99.90
57282;DHT22;43129;52.628;10.098;2023-09-12T05:21:30;19.00;99.90
57282;DHT22;43129;52.628;10.098;2023-09-12T05:23:56;19.00;99.90
57282;DHT22;43129;52.628;10.098;2023-09-12T05:26:24;19.00;99.90
57282;DHT22;43129;52.628;10.098;2023-09-12T05:28:49;19.00;99.90
57282;DHT22;43129;52.628;10.098;2023-09-12T05:31:15;19.10;99.90
57282;DHT22;43129;52.628;10.098;2023-09-12T05:33:41;19.10;99.90
57282;DHT22;43129;52.628;10.098;2023-09-12T05:36:06;19.10;99.90
57282;DHT22;43129;52.628;10.098;2023-09-12T05:38:32;19.20;99.90
57282;DHT22;43129;52.628;10.098;2023-09-12T05:40:58;19.30;99.90
57282;DHT22;43129;52.628;10.098;2023-09-12T05:43:26;19.30;99.90
57282;DHT22;43129;52.628;10.098;2023-09-12T05:45:52;19.20;99.90
57282;DHT22;43129;52.628;10.098;2023-09-12T05:48:17;19.10;99.90
57282;DHT22;43129;52.628;10.098;2023-09-12T05:50:45;19.00;99.90
57282;DHT22;43129;52.628;10.098;2023-09-12T05:53:13;19.00;99.90
57282;DHT22;43129;52.628;10.098;2023-09-12T05:55:40;19.10;99.90
57282;DHT22;43129;52.628;10.098;2023-09-12T05:58:08;19.00;99.90
57282;DHT22;43129;52.628;10.098;2023-09-12T06:00:36;19.00;99.90
57282;DHT22;43129;52.628;10.098;2023-09-12T06:03:04;19.00;99.90
57282;DHT22;43129;52.628;10.098;2023-09-12T06:05:29;18.90;99.90
57282;DHT22;43129;52.628;10.098;2023-09-12T06:07:57;18.90;99.90
57282;DHT22;43129;52.628;10.098;2023-09-12T06:10:25;18.90;99.90
57282;DHT22;43129;52.628;10.098;2023-09-12T06:12:51;18.90;99.90
57282;DHT22;43129;52.628;10.098;2023-09-12T06:15:17;18.90;99.90
57282;DHT22;43129;52.628;10.098;2023-09-12T06:17:42;18.90;99.90
57282;DHT22;43129;52.628;10.098;2023-09-12T06:20:08;18.90;99.90
57282;DHT22;43129;52.628;10.098;2023-09-12T06:22:36;18.90;99.90
57282;DHT22;43129;52.628;10.098;2023-09-12T06:25:02;18.90;99.90
57282;DHT22;43129;52.628;10.098;2023-09-12T06:27:28;18.90;99.90
57282;DHT22;43129;52.628;10.098;2023-09-12T06:29:54;18.70;99.90
57282;DHT22;43129;52.628;10.098;2023-09-12T06:32:19;18.80;99.90
57282;DHT22;43129;52.628;10.098;2023-09-12T06:34:45;18.90;99.90
57282;DHT22;43129;52.628;10.098;2023-09-12T06:37:11;18.80;99.90
57282;DHT22;43129;52.628;10.098;2023-09-12T06:39:37;18.80;99.90
57282;DHT22;43129;52.628;10.098;2023-09-12T06:42:03;18.70;99.90
57282;DHT22;43129;52.628;10.098;2023-09-12T06:44:28;18.70;99.90
57282;DHT22;43129;52.628;10.098;2023-09-12T06:46:56;18.60;99.90
57282;DHT22;43129;52.628;10.098;2023-09-12T06:49:24;18.50;99.90
57282;DHT22;43129;52.628;10.098;2023-09-12T06:51:52;18.40;99.90
57282;DHT22;43129;52.628;10.098;2023-09-12T06:54:20;18.30;99.90
57282;DHT22;43129;52.628;10.098;2023-09-12T06:56:48;18.30;99.90
57282;DHT22;43129;52.628;10.098;2023-09-12T06:59:14;18.30;99.90
57282;DHT22;43129;52.628;10.098;2023-09-12T07:01:42;18.40;99.90
57282;DHT22;43129;52.628;10.098;2023-09-12T07:04:09;18.40;99.90
57282;DHT22;43129;52.628;10.098;2023-09-12T07:06:34;18.40;99.90
57282;DHT22;43129;52.628;10.098;2023-09-12T07:09:00;18.50;99.90
57282;DHT22;43129;52.628;10.098;2023-09-12T07:11:28;18.40;99.90
57282;DHT22;43129;52.628;10.098;2023-09-12T07:13:54;18.40;99.90
57282;DHT22;43129;52.628;10.098;2023-09-12T07:16:19;18.40;99.90
57282;DHT22;43129;52.628;10.098;2023-09-12T07:18:47;18.30;99.90
57282;DHT22;43129;52.628;10.098;2023-09-12T07:21:12;18.30;99.90
57282;DHT22;43129;52.628;10.098;2023-09-12T07:23:38;18.40;99.90
57282;DHT22;43129;52.628;10.098;2023-09-12T07:26:04;18.40;99.90
57282;DHT22;43129;52.628;10.098;2023-09-12T07:28:30;18.40;99.90
57282;DHT22;43129;52.628;10.098;2023-09-12T07:30:58;18.40;99.90
57282;DHT22;43129;52.628;10.098;2023-09-12T07:33:24;18.40;99.90
57282;DHT22;43129;52.628;10.098;2023-09-12T07:35:53;18.50;99.90
57282;DHT22;43129;52.628;10.098;2023-09-12T07:38:21;18.40;99.90
57282;DHT22;43129;52.628;10.098;2023-09-12T07:40:47;18.30;99.90
57282;DHT22;43129;52.628;10.098;2023-09-12T07:43:17;18.30;99.90
57282;DHT22;43129;52.628;10.098;2023-09-12T07:45:43;18.30;99.90
57282;DHT22;43129;52.628;10.098;2023-09-12T07:48:10;18.30;99.90
57282;DHT22;43129;52.628;10.098;2023-09-12T07:50:38;18.30;99.90
57282;DHT22;43129;52.628;10.098;2023-09-12T07:53:05;18.40;99.90
57282;DHT22;43129;52.628;10.098;2023-09-12T07:55:31;18.40;99.90
57282;DHT22;43129;52.628;10.098;2023-09-12T07:58:04;18.50;99.90
57282;DHT22;43129;52.628;10.098;2023-09-12T08:00:29;18.60;99.90
57282;DHT22;43129;52.628;10.098;2023-09-12T08:02:55;18.70;99.90
57282;DHT22;43129;52.628;10.098;2023-09-12T08:05:21;18.80;99.90
57282;DHT22;43129;52.628;10.098;2023-09-12T08:07:48;18.90;99.90
57282;DHT22;43129;52.628;10.098;2023-09-12T08:10:14;19.00;99.90
57282;DHT22;43129;52.628;10.098;2023-09-12T08:12:44;19.00;99.90
57282;DHT22;43129;52.628;10.098;2023-09-12T08:15:10;19.00;99.90
57282;DHT22;43129;52.628;10.098;2023-09-12T08:17:35;19.00;99.90
57282;DHT22;43129;52.628;10.098;2023-09-12T08:20:01;19.10;99.90
57282;DHT22;43129;52.628;10.098;2023-09-12T08:22:27;19.30;99.90
57282;DHT22;43129;52.628;10.098;2023-09-12T08:24:53;19.20;99.90
57282;DHT22;43129;52.628;10.098;2023-09-12T08:27:18;19.20;99.90
57282;DHT22;43129;52.628;10.098;2023-09-12T08:29:44;19.20;99.90
57282;DHT22;43129;52.628;10.098;2023-09-12T08:32:12;19.20;99.90
57282;DHT22;43129;52.628;10.098;2023-09-12T08:34:40;19.20;99.90
57282;DHT22;43129;52.628;10.098;2023-09-12T08:37:10;19.30;99.90
57282;DHT22;43129;52.628;10.098;2023-09-12T08:39:45;19.20;99.90
57282;DHT22;43129;52.628;10.098;2023-09-12T08:42:15;19.20;99.90
57282;DHT22;43129;52.628;10.098;2023-09-12T08:44:44;19.30;99.90
57282;DHT22;43129;52.628;10.098;2023-09-12T08:47:11;19.30;99.90
57282;DHT22;43129;52.628;10.098;2023-09-12T08:49:37;19.30;99.90
57282;DHT22;43129;52.628;10.098;2023-09-12T08:52:05;19.20;99.90
57282;DHT22;43129;52.628;10.098;2023-09-12T08:54:33;19.10;99.90
57282;DHT22;43129;52.628;10.098;2023-09-12T08:57:01;19.10;99.90
57282;DHT22;43129;52.628;10.098;2023-09-12T08:59:29;19.10;99.90
57282;DHT22;43129;52.628;10.098;2023-09-12T09:02:00;19.10;99.90
57282;DHT22;43129;52.628;10.098;2023-09-12T09:04:29;19.20;99.90
57282;DHT22;43129;52.628;10.098;2023-09-12T09:06:58;19.20;99.90
57282;DHT22;43129;52.628;10.098;2023-09-12T09:09:23;19.20;99.90
57282;DHT22;43129;52.628;10.098;2023-09-12T09:11:55;19.20;99.90
57282;DHT22;43129;52.628;10.098;2023-09-12T09:14:21;19.30;99.90
57282;DHT22;43129;52.628;10.098;2023-09-12T09:16:49;19.40;99.90
57282;DHT22;43129;52.628;10.098;2023-09-12T09:19:14;19.40;99.90
57282;DHT22;43129;52.628;10.098;2023-09-12T09:21:41;19.40;99.90
57282;DHT22;43129;52.628;10.098;2023-09-12T09:24:11;19.40;99.90
57282;DHT22;43129;52.628;10.098;2023-09-12T09:26:47;19.40;99.90
57282;DHT22;43129;52.628;10.098;2023-09-12T09:29:21;19.40;99.90
57282;DHT22;43129;52.628;10.098;2023-09-12T09:31:51;19.50;99.90
57282;DHT22;43129;52.628;10.098;2023-09-12T09:34:20;19.40;99.90
57282;DHT22;43129;52.628;10.098;2023-09-12T09:36:52;19.30;99.90
57282;DHT22;43129;52.628;10.098;2023-09-12T09:39:23;19.40;99.90
57282;DHT22;43129;52.628;10.098;2023-09-12T09:41:53;19.30;99.90
57282;DHT22;43129;52.628;10.098;2023-09-12T09:44:24;19.20;99.90
57282;DHT22;43129;52.628;10.098;2023-09-12T09:46:58;19.30;99.90
57282;DHT22;43129;52.628;10.098;2023-09-12T09:49:25;19.30;99.90
57282;DHT22;43129;52.628;10.098;2023-09-12T09:51:57;19.30;99.90
57282;DHT22;43129;52.628;10.098;2023-09-12T09:54:25;19.20;99.90
57282;DHT22;43129;52.628;10.098;2023-09-12T09:56:57;19.10;99.90
57282;DHT22;43129;52.628;10.098;2023-09-12T09:59:26;19.10;99.90
57282;DHT22;43129;52.628;10.098;2023-09-12T10:01:59;19.20;99.90
57282;DHT22;43129;52.628;10.098;2023-09-12T10:04:27;19.00;99.90
57282;DHT22;43129;52.628;10.098;2023-09-12T10:06:57;18.90;99.90
57282;DHT22;43129;52.628;10.098;2023-09-12T10:09:28;18.80;99.90
57282;DHT22;43129;52.628;10.098;2023-09-12T10:11:56;18.90;99.90
57282;DHT22;43129;52.628;10.098;2023-09-12T10:14:24;18.80;99.90
57282;DHT22;43129;52.628;10.098;2023-09-12T10:17:05;18.80;99.90
57282;DHT22;43129;52.628;10.098;2023-09-12T10:19:43;18.90;99.90
57282;DHT22;43129;52.628;10.098;2023-09-12T10:22:21;18.80;99.90
57282;DHT22;43129;52.628;10.098;2023-09-12T10:24:49;18.80;99.90
57282;DHT22;43129;52.628;10.098;2023-09-12T10:27:18;18.80;99.90
57282;DHT22;43129;52.628;10.098;2023-09-12T10:29:44;18.70;99.90
57282;DHT22;43129;52.628;10.098;2023-09-12T10:32:14;18.80;99.90
57282;DHT22;43129;52.628;10.098;2023-09-12T10:34:42;18.70;99.90
57282;DHT22;43129;52.628;10.098;2023-09-12T10:37:15;18.70;99.90
57282;DHT22;43129;52.628;10.098;2023-09-12T10:39:43;18.70;99.90
57282;DHT22;43129;52.628;10.098;2023-09-12T10:42:14;18.90;99.90
57282;DHT22;43129;52.628;10.098;2023-09-12T10:44:44;18.80;99.90
57282;DHT22;43129;52.628;10.098;2023-09-12T10:47:16;18.80;99.90
57282;DHT22;43129;52.628;10.098;2023-09-12T10:49:46;18.80;99.90
57282;DHT22;43129;52.628;10.098;2023-09-12T10:52:24;18.80;99.90
57282;DHT22;43129;52.628;10.098;2023-09-12T10:54:50;18.80;99.90
57282;DHT22;43129;52.628;10.098;2023-09-12T10:57:16;18.90;99.90
57282;DHT22;43129;52.628;10.098;2023-09-12T11:02:32;18.90;99.90
57282;DHT22;43129;52.628;10.098;2023-09-12T11:05:03;18.90;99.90
57282;DHT22;43129;52.628;10.098;2023-09-12T11:12:42;18.80;99.90
57282;DHT22;43129;52.628;10.098;2023-09-12T11:15:10;18.80;99.90
57282;DHT22;43129;52.628;10.098;2023-09-12T11:18:12;18.70;99.90
57282;DHT22;43129;52.628;10.098;2023-09-12T11:20:51;18.70;99.90
57282;DHT22;43129;52.628;10.098;2023-09-12T11:23:19;18.70;99.90
57282;DHT22;43129;52.628;10.098;2023-09-12T11:25:44;18.60;99.90
57282;DHT22;43129;52.628;10.098;2023-09-12T11:28:12;18.50;99.90
57282;DHT22;43129;52.628;10.098;2023-09-12T11:30:55;18.50;99.90
57282;DHT22;43129;52.628;10.098;2023-09-12T11:33:23;18.60;99.90
57282;DHT22;43129;52.628;10.098;2023-09-12T11:35:52;18.80;99.90
57282;DHT22;43129;52.628;10.098;2023-09-12T11:38:27;18.80;99.90
57282;DHT22;43129;52.628;10.098;2023-09-12T11:40:54;18.70;99.90
57282;DHT22;43129;52.628;10.098;2023-09-12T11:43:24;18.70;99.90
57282;DHT22;43129;52.628;10.098;2023-09-12T11:45:51;18.60;99.90
57282;DHT22;43129;52.628;10.098;2023-09-12T11:48:22;18.60;99.90
57282;DHT22;43129;52.628;10.098;2023-09-12T11:50:52;18.60;99.90
57282;DHT22;43129;52.628;10.098;2023-09-12T11:53:20;18.60;99.90
57282;DHT22;43129;52.628;10.098;2023-09-12T11:55:48;18.70;99.90
57282;DHT22;43129;52.628;10.098;2023-09-12T11:58:17;18.60;99.90
57282;DHT22;43129;52.628;10.098;2023-09-12T12:00:51;18.50;99.90
57282;DHT22;43129;52.628;10.098;2023-09-12T12:03:18;18.50;99.90
57282;DHT22;43129;52.628;10.098;2023-09-12T12:05:47;18.50;99.90
57282;DHT22;43129;52.628;10.098;2023-09-12T12:08:14;18.40;99.90
57282;DHT22;43129;52.628;10.098;2023-09-12T12:10:46;18.40;99.90
57282;DHT22;43129;52.628;10.098;2023-09-12T12:13:18;18.40;99.90
57282;DHT22;43129;52.628;10.098;2023-09-12T12:15:47;18.40;99.90
57282;DHT22;43129;52.628;10.098;2023-09-12T12:18:14;18.50;99.90
57282;DHT22;43129;52.628;10.098;2023-09-12T12:20:39;18.60;99.90
57282;DHT22;43129;52.628;10.098;2023-09-12T12:23:07;18.40;99.90
57282;DHT22;43129;52.628;10.098;2023-09-12T12:25:34;18.40;99.90
57282;DHT22;43129;52.628;10.098;2023-09-12T12:28:00;18.50;99.90
57282;DHT22;43129;52.628;10.098;2023-09-12T12:30:30;18.40;99.90
57282;DHT22;43129;52.628;10.098;2023-09-12T12:32:57;18.40;99.90
57282;DHT22;43129;52.628;10.098;2023-09-12T12:35:24;18.40;99.90
57282;DHT22;43129;52.628;10.098;2023-09-12T12:37:55;18.30;99.90
57282;DHT22;43129;52.628;10.098;2023-09-12T12:40:23;18.40;99.90
57282;DHT22;43129;52.628;10.098;2023-09-12T12:42:49;18.30;99.90
57282;DHT22;43129;52.628;10.098;2023-09-12T12:45:16;18.30;99.90
57282;DHT22;43129;52.628;10.098;2023-09-12T12:47:45;18.30;99.90
57282;DHT22;43129;52.628;10.098;2023-09-12T12:50:14;18.30;99.90
57282;DHT22;43129;52.628;10.098;2023-09-12T12:52:41;18.30;99.90
57282;DHT22;43129;52.628;10.098;2023-09-12T12:55:09;18.40;99.90
57282;DHT22;43129;52.628;10.098;2023-09-12T12:57:39;18.40;99.90
57282;DHT22;43129;52.628;10.098;2023-09-12T13:00:07;18.60;99.90
57282;DHT22;43129;52.628;10.098;2023-09-12T13:02:39;18.80;99.90
57282;DHT22;43129;52.628;10.098;2023-09-12T13:05:19;19.10;99.90
57282;DHT22;43129;52.628;10.098;2023-09-12T13:07:47;19.30;99.90
57282;DHT22;43129;52.628;10.098;2023-09-12T13:10:14;19.40;99.90
57282;DHT22;43129;52.628;10.098;2023-09-12T13:12:42;19.40;99.90
57282;DHT22;43129;52.628;10.098;2023-09-12T13:15:11;19.30;99.90
57282;DHT22;43129;52.628;10.098;2023-09-12T13:17:37;19.40;99.90
57282;DHT22;43129;52.628;10.098;2023-09-12T13:20:06;19.40;99.90
57282;DHT22;43129;52.628;10.098;2023-09-12T13:22:36;19.50;99.90
57282;DHT22;43129;52.628;10.098;2023-09-12T13:25:05;19.40;99.90
57282;DHT22;43129;52.628;10.098;2023-09-12T13:27:33;19.50;99.90
57282;DHT22;43129;52.628;10.098;2023-09-12T13:29:59;19.50;99.90
57282;DHT22;43129;52.628;10.098;2023-09-12T13:32:24;19.70;99.90
57282;DHT22;43129;52.628;10.098;2023-09-12T13:34:50;19.90;99.90
57282;DHT22;43129;52.628;10.098;2023-09-12T13:37:16;20.00;99.90
57282;DHT22;43129;52.628;10.098;2023-09-12T13:39:42;20.10;99.90
57282;DHT22;43129;52.628;10.098;2023-09-12T13:42:14;20.40;99.90
57282;DHT22;43129;52.628;10.098;2023-09-12T13:44:44;20.80;99.90
57282;DHT22;43129;52.628;10.098;2023-09-12T13:47:10;21.40;99.90
57282;DHT22;43129;52.628;10.098;2023-09-12T13:49:38;21.60;99.90
57282;DHT22;43129;52.628;10.098;2023-09-12T13:52:04;21.70;99.90
57282;DHT22;43129;52.628;10.098;2023-09-12T13:54:29;22.30;99.90
57282;DHT22;43129;52.628;10.098;2023-09-12T13:56:56;22.40;99.90
57282;DHT22;43129;52.628;10.098;2023-09-12T13:59:21;22.30;99.90
57282;DHT22;43129;52.628;10.098;2023-09-12T14:01:49;21.70;99.90
57282;DHT22;43129;52.628;10.098;2023-09-12T14:04:17;21.70;99.90
57282;DHT22;43129;52.628;10.098;2023-09-12T14:06:43;22.30;99.90
57282;DHT22;43129;52.628;10.098;2023-09-12T14:09:08;22.60;99.90
57282;DHT22;43129;52.628;10.098;2023-09-12T14:11:35;22.70;99.90
57282;DHT22;43129;52.628;10.098;2023-09-12T14:14:01;22.10;99.90
57282;DHT22;43129;52.628;10.098;2023-09-12T14:16:27;21.70;99.90
57282;DHT22;43129;52.628;10.098;2023-09-12T14:18:58;21.50;99.90
57282;DHT22;43129;52.628;10.098;2023-09-12T14:21:24;22.00;99.90
57282;DHT22;43129;52.628;10.098;2023-09-12T14:23:52;22.10;99.90
57282;DHT22;43129;52.628;10.098;2023-09-12T14:26:20;22.00;99.90
57282;DHT22;43129;52.628;10.098;2023-09-12T14:28:48;21.80;99.90
57282;DHT22;43129;52.628;10.098;2023-09-12T14:31:13;21.60;99.90
57282;DHT22;43129;52.628;10.098;2023-09-12T14:33:45;21.60;99.90
57282;DHT22;43129;52.628;10.098;2023-09-12T14:36:10;21.50;99.90
57282;DHT22;43129;52.628;10.098;2023-09-12T14:38:36;21.60;99.90
57282;DHT22;43129;52.628;10.098;2023-09-12T14:41:04;21.80;99.90
57282;DHT22;43129;52.628;10.098;2023-09-12T14:43:29;22.40;99.90
57282;DHT22;43129;52.628;10.098;2023-09-12T14:45:55;23.50;99.90
57282;DHT22;43129;52.628;10.098;2023-09-12T14:48:21;23.80;99.90
57282;DHT22;43129;52.628;10.098;2023-09-12T14:50:46;23.50;99.90
57282;DHT22;43129;52.628;10.098;2023-09-12T14:53:15;24.10;99.90
57282;DHT22;43129;52.628;10.098;2023-09-12T14:55:42;24.70;99.90
57282;DHT22;43129;52.628;10.098;2023-09-12T14:58:10;24.40;99.90
57282;DHT22;43129;52.628;10.098;2023-09-12T15:00:36;24.00;99.90
57282;DHT22;43129;52.628;10.098;2023-09-12T15:03:03;24.00;99.90
57282;DHT22;43129;52.628;10.098;2023-09-12T15:05:29;25.00;99.90
57282;DHT22;43129;52.628;10.098;2023-09-12T15:07:55;25.40;99.90
57282;DHT22;43129;52.628;10.098;2023-09-12T15:10:21;26.20;99.90
57282;DHT22;43129;52.628;10.098;2023-09-12T15:12:46;26.70;99.90
57282;DHT22;43129;52.628;10.098;2023-09-12T15:15:12;27.10;99.90
57282;DHT22;43129;52.628;10.098;2023-09-12T15:17:38;27.80;99.90
57282;DHT22;43129;52.628;10.098;2023-09-12T15:20:04;28.10;99.90
57282;DHT22;43129;52.628;10.098;2023-09-12T15:22:33;27.60;99.90
57282;DHT22;43129;52.628;10.098;2023-09-12T15:25:02;27.80;99.90
57282;DHT22;43129;52.628;10.098;2023-09-12T15:27:30;27.00;99.90
57282;DHT22;43129;52.628;10.098;2023-09-12T15:29:56;26.20;99.90